Time;durP1;ratioP1;P1;durP2;ratioP2;P2;SDS_P1;SDS_P2;PMS_P1;PMS_P2;Temp;Humidity;BMP_temperature;BMP_pressure;BME280_temperature;BME280_humidity;BME280_pressure;Samples;Min_cycle;Max_cycle;Signal;HPM_P1;HPM_P2
2022/10/17 00:01:21;;;;;;;50.90;28.50;;;;;;;-141.97;77.75;47565.22;5035198;28;20665;-84
2022/10/17 00:03:46;;;;;;;58.50;29.63;;;;;;;-141.97;78.69;47578.66;5034947;28;20174;-84
2022/10/17 00:06:13;;;;;;;53.20;28.43;;;;;;;-141.97;79.12;47567.13;5052686;28;20173;-84
2022/10/17 00:08:43;;;;;;;46.37;26.80;;;;;;;-141.97;78.51;47592.13;5052957;28;20244;-85
2022/10/17 00:11:15;;;;;;;49.97;26.30;;;;;;;-141.97;79.31;47590.19;5052892;28;20478;-84
2022/10/17 00:13:41;;;;;;;46.13;25.40;;;;;;;-141.97;78.83;47620.94;5052547;28;20429;-84
2022/10/17 00:16:06;;;;;;;45.57;25.67;;;;;;;-141.97;79.17;47526.75;5052371;28;20449;-84
2022/10/17 00:18:32;;;;;;;52.63;27.03;;;;;;;-141.97;78.97;47630.56;5053411;28;20535;-83
2022/10/17 00:20:57;;;;;;;53.93;25.27;;;;;;;-141.97;78.64;47678.63;5052511;28;20177;-83
2022/10/17 00:23:23;;;;;;;44.57;23.57;;;;;;;-141.97;77.90;47713.22;5051479;28;20231;-82
2022/10/17 00:25:57;;;;;;;44.33;23.97;;;;;;;-141.97;77.87;47519.06;5034774;28;20176;-84
2022/10/17 00:28:23;;;;;;;43.97;23.03;;;;;;;-141.97;77.35;47569.06;5052423;28;20617;-83
2022/10/17 00:31:02;;;;;;;40.57;21.80;;;;;;;-141.97;76.81;47567.13;5052575;28;20414;-83
2022/10/17 00:33:28;;;;;;;39.53;21.43;;;;;;;-141.97;76.35;47534.44;5052305;28;20154;-83
2022/10/17 00:36:12;;;;;;;34.53;20.60;;;;;;;-141.97;76.51;47730.50;5052309;28;20401;-83
2022/10/17 00:38:39;;;;;;;34.70;19.83;;;;;;;-141.97;75.79;47592.13;5034359;28;21027;-83
2022/10/17 00:41:05;;;;;;;37.23;20.87;;;;;;;-141.97;75.40;47651.69;5034250;28;20408;-83
2022/10/17 00:43:48;;;;;;;38.90;21.00;;;;;;;-141.97;75.53;47565.22;5052045;28;20242;-82
2022/10/17 00:46:14;;;;;;;40.67;21.57;;;;;;;-141.97;75.27;47688.22;5052016;28;20193;-83
2022/10/17 00:48:39;;;;;;;36.27;21.57;;;;;;;-141.97;75.45;47599.81;5052342;28;20622;-83
2022/10/17 00:51:05;;;;;;;36.13;20.83;;;;;;;-141.97;75.25;47695.91;5034122;28;20737;-83
2022/10/17 00:53:31;;;;;;;39.63;21.07;;;;;;;-141.97;75.35;47595.97;5052058;28;20174;-84
2022/10/17 00:55:57;;;;;;;36.83;21.37;;;;;;;-141.97;75.52;47611.34;5051875;28;20244;-84
2022/10/17 00:58:22;;;;;;;37.20;20.40;;;;;;;-141.97;76.04;47649.78;5033821;28;20989;-83
2022/10/17 01:00:48;;;;;;;39.93;21.10;;;;;;;-141.97;76.10;47471.03;5033887;28;20207;-84
2022/10/17 01:03:13;;;;;;;36.57;19.63;;;;;;;-141.97;76.28;47546.00;5033987;28;20169;-83
2022/10/17 01:05:40;;;;;;;34.57;20.13;;;;;;;-141.97;76.23;47622.88;5034571;28;20614;-83
2022/10/17 01:08:07;;;;;;;35.57;19.63;;;;;;;-141.97;75.75;47603.66;5034066;28;20165;-84
2022/10/17 01:10:47;;;;;;;38.50;19.97;;;;;;;-141.97;76.22;47480.63;5051871;28;20408;-84
2022/10/17 01:13:21;;;;;;;38.17;19.57;;;;;;;-141.97;77.29;47549.84;5051907;28;20486;-83
2022/10/17 01:15:49;;;;;;;34.27;18.40;;;;;;;-141.97;77.81;47605.56;5033659;28;20449;-82
2022/10/17 01:18:24;;;;;;;34.73;18.77;;;;;;;-141.97;78.12;47599.81;5033319;28;20451;-83
2022/10/17 01:21:18;;;;;;;34.23;19.17;;;;;;;-141.97;78.42;47619.03;5033629;28;20477;-83
2022/10/17 01:24:09;;;;;;;34.53;18.50;;;;;;;-141.97;79.80;47617.09;5032282;28;20769;-83
2022/10/17 01:27:04;;;;;;;32.77;18.30;;;;;;;-141.97;79.64;47619.03;5051360;28;20395;-84
2022/10/17 01:30:11;;;;;;;35.10;17.93;;;;;;;-141.97;79.94;47630.56;5051284;28;20396;-84
2022/10/17 01:32:46;;;;;;;34.70;18.43;;;;;;;-141.97;80.67;47657.47;5049184;28;20408;-84
2022/10/17 01:35:22;;;;;;;35.70;18.60;;;;;;;-141.97;81.25;47695.91;5033559;28;20403;-84
2022/10/17 01:38:02;;;;;;;35.03;18.67;;;;;;;-141.97;80.53;47615.19;5051264;28;20451;-84
2022/10/17 01:40:47;;;;;;;38.10;18.53;;;;;;;-141.97;80.74;47638.25;5033488;28;20781;-83
2022/10/17 01:43:22;;;;;;;39.13;18.77;;;;;;;-141.97;81.36;47599.81;5051453;28;20407;-83
2022/10/17 01:46:01;;;;;;;33.77;18.10;;;;;;;-141.97;82.14;47619.03;5051242;28;20460;-83
2022/10/17 01:48:34;;;;;;;34.47;17.87;;;;;;;-141.97;81.66;47530.59;5033431;28;20412;-83
2022/10/17 01:51:10;;;;;;;42.97;22.87;;;;;;;-141.97;81.07;47567.13;5049859;28;20604;-83
2022/10/17 01:53:42;;;;;;;47.43;25.50;;;;;;;-141.97;80.53;47644.00;5032861;28;20451;-83
2022/10/17 01:56:11;;;;;;;38.70;20.73;;;;;;;-141.97;79.99;47622.88;5033198;28;20412;-82
2022/10/17 01:58:49;;;;;;;38.73;19.33;;;;;;;-141.97;79.47;47638.25;5051119;28;20882;-82
2022/10/17 02:01:16;;;;;;;32.83;18.97;;;;;;;-141.97;79.08;47517.16;5033983;28;20523;-83
2022/10/17 02:03:44;;;;;;;32.87;18.13;;;;;;;-141.97;79.05;47570.97;5033729;28;20408;-83
2022/10/17 02:06:09;;;;;;;30.63;16.53;;;;;;;-141.97;79.97;47532.53;5053380;28;20499;-82
2022/10/17 02:08:44;;;;;;;30.83;16.67;;;;;;;-141.97;80.19;47657.47;5059438;28;20435;-82
2022/10/17 02:11:26;;;;;;;31.87;15.87;;;;;;;-141.97;80.54;47615.19;5069033;28;20192;-83
2022/10/17 02:14:31;;;;;;;31.80;16.30;;;;;;;-141.97;80.83;47628.63;5045892;28;20419;-83
2022/10/17 02:17:15;;;;;;;30.77;15.20;;;;;;;-141.97;81.31;47628.63;5033561;28;20440;-83
2022/10/17 02:20:06;;;;;;;31.70;16.10;;;;;;;-141.97;81.69;47530.59;5050651;28;20479;-83
2022/10/17 02:23:02;;;;;;;37.53;17.10;;;;;;;-141.97;81.98;47584.44;5032780;28;20466;-83
2022/10/17 02:25:52;;;;;;;28.90;16.00;;;;;;;-141.97;82.33;47634.41;5033279;28;20427;-83
2022/10/17 02:28:30;;;;;;;31.20;17.27;;;;;;;-141.97;83.31;47678.63;5049667;28;20416;-83
2022/10/17 02:31:30;;;;;;;32.87;17.30;;;;;;;-141.97;83.57;47638.25;5050668;28;20419;-83
2022/10/17 02:34:01;;;;;;;30.37;16.60;;;;;;;-141.97;83.97;47607.50;4989210;28;20516;-83
2022/10/17 02:36:32;;;;;;;31.47;16.87;;;;;;;-141.97;84.07;47609.41;4989309;28;20414;-83
2022/10/17 02:39:00;;;;;;;30.27;16.20;;;;;;;-141.97;84.20;47620.94;4989567;28;20433;-83
2022/10/17 02:41:26;;;;;;;28.30;16.17;;;;;;;-141.97;83.49;47619.03;4973098;28;21060;-83
2022/10/17 02:43:52;;;;;;;31.70;16.67;;;;;;;-141.97;83.42;47588.28;4989104;28;20517;-83
2022/10/17 02:46:21;;;;;;;28.70;16.37;;;;;;;-141.97;83.56;47655.53;4989523;28;20167;-84
2022/10/17 02:49:06;;;;;;;28.93;15.77;;;;;;;-141.97;83.09;47609.41;4989526;28;20457;-84
2022/10/17 02:51:43;;;;;;;28.73;15.73;;;;;;;-141.97;82.50;47603.66;4972866;28;20479;-83
2022/10/17 02:54:11;;;;;;;28.97;15.97;;;;;;;-141.97;81.98;47549.84;4989147;28;20426;-83
2022/10/17 02:56:42;;;;;;;27.30;15.70;;;;;;;-141.97;81.37;47619.03;4989411;28;20422;-82
2022/10/17 02:59:13;;;;;;;31.30;16.13;;;;;;;-141.97;81.73;47676.69;4989339;28;20407;-83
2022/10/17 03:01:39;;;;;;;28.03;15.30;;;;;;;-141.97;81.69;47647.84;4973329;28;20415;-83
2022/10/17 03:04:10;;;;;;;25.47;14.37;;;;;;;-141.97;81.32;47611.34;4989648;28;20517;-83
2022/10/17 03:06:36;;;;;;;72.23;28.03;;;;;;;-141.97;81.12;47553.69;4974840;28;20718;-83
2022/10/17 03:09:02;;;;;;;59.00;26.47;;;;;;;-141.97;80.65;47622.88;4996034;28;20558;-83
2022/10/17 03:11:28;;;;;;;46.43;22.97;;;;;;;-141.97;80.43;47609.41;5054190;28;20165;-83
2022/10/17 03:13:53;;;;;;;36.90;18.63;;;;;;;-141.97;80.08;47605.56;5054353;28;20414;-83
2022/10/17 03:16:18;;;;;;;38.83;17.13;;;;;;;-141.97;79.90;47709.38;5053894;28;20178;-83
2022/10/17 03:18:44;;;;;;;36.20;17.50;;;;;;;-141.97;79.73;47630.56;5035884;28;20172;-83
2022/10/17 03:21:09;;;;;;;27.63;16.87;;;;;;;-141.97;79.60;47619.03;5053856;28;20166;-83
2022/10/17 03:23:35;;;;;;;29.80;17.00;;;;;;;-141.97;79.46;47622.88;5054490;28;20659;-83
2022/10/17 03:26:05;;;;;;;38.10;20.83;;;;;;;-141.97;80.96;47630.56;5035890;28;20601;-84
2022/10/17 03:28:30;;;;;;;40.73;20.17;;;;;;;-141.97;81.19;47711.28;5035585;28;20208;-83
2022/10/17 03:30:55;;;;;;;32.47;16.73;;;;;;;-141.97;81.73;47722.81;5053486;28;20404;-84
2022/10/17 03:33:21;;;;;;;31.77;17.63;;;;;;;-141.97;81.80;47628.63;5037421;28;20192;-83
2022/10/17 03:35:46;;;;;;;31.03;16.53;;;;;;;-141.97;82.98;47549.84;5054634;28;20169;-83
2022/10/17 03:38:12;;;;;;;33.90;17.90;;;;;;;-141.97;83.68;47609.41;5054166;28;20240;-82
2022/10/17 03:40:37;;;;;;;31.03;15.13;;;;;;;-141.97;84.50;47649.78;5036152;28;20256;-83
2022/10/17 03:43:03;;;;;;;30.07;16.07;;;;;;;-141.97;84.55;47492.16;5035660;28;20620;-83
2022/10/17 03:45:28;;;;;;;27.63;16.40;;;;;;;-141.97;84.03;47576.75;5035587;28;20177;-83
2022/10/17 03:47:53;;;;;;;28.30;15.93;;;;;;;-141.97;83.22;47511.38;5053520;28;20191;-82
2022/10/17 03:50:19;;;;;;;34.60;17.63;;;;;;;-141.97;83.27;47572.91;5037662;28;20777;-83
2022/10/17 03:52:48;;;;;;;58.33;24.57;;;;;;;-141.97;83.94;47580.59;5054104;28;20176;-83
2022/10/17 03:55:14;;;;;;;59.20;23.97;;;;;;;-141.97;84.15;47672.84;5055291;28;20630;-84
2022/10/17 03:57:39;;;;;;;54.03;23.17;;;;;;;-141.97;83.57;47576.75;5037050;28;20412;-84
2022/10/17 04:00:05;;;;;;;61.13;22.70;;;;;;;-141.97;84.04;47622.88;5037197;28;20264;-84
2022/10/17 04:02:31;;;;;;;33.23;16.70;;;;;;;-141.97;84.59;47726.66;5035271;28;20220;-84
2022/10/17 04:04:56;;;;;;;27.30;15.23;;;;;;;-141.97;84.79;47626.72;5035528;28;20511;-84
2022/10/17 04:07:21;;;;;;;27.20;14.63;;;;;;;-141.97;85.10;47599.81;5035027;28;20199;-84
2022/10/17 04:09:47;;;;;;;23.20;13.57;;;;;;;-141.97;84.20;47609.41;5052947;28;20195;-85
2022/10/17 04:12:12;;;;;;;24.30;11.97;;;;;;;-141.97;83.69;47544.06;5052902;28;20173;-84
2022/10/17 04:14:37;;;;;;;28.73;14.93;;;;;;;-141.97;83.69;47582.50;5035157;28;20272;-83
2022/10/17 04:17:03;;;;;;;36.37;18.60;;;;;;;-141.97;83.38;47478.72;5052058;28;20188;-85
2022/10/17 04:19:28;;;;;;;45.43;24.43;;;;;;;-141.97;83.78;47469.09;5052701;28;20195;-85
2022/10/17 04:21:54;;;;;;;48.73;25.17;;;;;;;-141.97;83.40;47624.78;5053004;28;20637;-83
2022/10/17 04:24:19;;;;;;;31.87;18.20;;;;;;;-141.97;83.53;47619.03;5052541;28;20161;-85
2022/10/17 04:26:49;;;;;;;30.53;15.63;;;;;;;-141.97;84.58;47647.84;5052636;28;20157;-84
2022/10/17 04:29:15;;;;;;;37.00;17.07;;;;;;;-141.97;85.56;47601.72;5034699;28;20197;-84
2022/10/17 04:31:40;;;;;;;28.57;15.53;;;;;;;-141.97;85.42;47501.78;5052742;28;21097;-83
2022/10/17 04:34:06;;;;;;;26.33;15.17;;;;;;;-141.97;85.56;47699.75;5052648;28;20158;-83
2022/10/17 04:36:34;;;;;;;26.07;15.00;;;;;;;-141.97;84.54;47597.88;5043221;28;20263;-85
2022/10/17 04:39:04;;;;;;;28.40;14.67;;;;;;;-141.97;83.92;47655.53;5049114;28;20582;-84
2022/10/17 04:41:30;;;;;;;29.30;14.20;;;;;;;-141.97;83.92;47695.91;5052424;28;20400;-84
2022/10/17 04:43:55;;;;;;;26.97;13.93;;;;;;;-141.97;84.60;47686.31;5036491;28;20413;-83
2022/10/17 04:46:21;;;;;;;32.33;15.30;;;;;;;-141.97;84.96;47551.75;5032062;28;20240;-83
2022/10/17 04:48:46;;;;;;;29.70;14.53;;;;;;;-141.97;85.77;47607.50;5033471;28;20343;-82
2022/10/17 04:51:14;;;;;;;29.70;15.77;;;;;;;-141.97;85.88;47601.72;5051957;28;20692;-83
2022/10/17 04:53:41;;;;;;;31.70;16.03;;;;;;;-141.97;85.65;47644.00;5051988;28;20589;-84
2022/10/17 04:56:12;;;;;;;25.30;13.47;;;;;;;-141.97;84.84;47669.00;5037317;28;20408;-83
2022/10/17 04:58:38;;;;;;;24.47;12.03;;;;;;;-141.97;84.42;47745.88;5039968;28;20411;-84
2022/10/17 05:01:06;;;;;;;30.63;16.30;;;;;;;-141.97;84.68;47569.06;5034092;28;20412;-84
2022/10/17 05:03:32;;;;;;;36.10;19.03;;;;;;;-141.97;84.48;47634.41;5057720;28;20408;-84
2022/10/17 05:05:57;;;;;;;41.63;19.63;;;;;;;-141.97;83.96;47699.75;5034798;28;20422;-84
2022/10/17 05:08:22;;;;;;;59.47;29.57;;;;;;;-141.97;83.19;47707.44;5051744;28;20549;-84
2022/10/17 05:10:49;;;;;;;41.33;22.13;;;;;;;-141.97;81.91;47605.56;5478226;23;20309;-86
2022/10/17 05:13:14;;;;;;;32.83;17.93;;;;;;;-141.97;81.61;47680.53;5007809;28;20567;-84
2022/10/17 05:15:40;;;;;;;34.70;16.67;;;;;;;-141.97;81.01;47611.34;4995234;28;20445;-84
2022/10/17 05:18:06;;;;;;;29.23;15.53;;;;;;;-141.97;80.71;47599.81;5012209;28;20205;-83
2022/10/17 05:20:35;;;;;;;37.57;18.90;;;;;;;-141.97;81.28;47611.34;5007605;28;20232;-84
2022/10/17 05:23:05;;;;;;;39.43;19.77;;;;;;;-141.97;82.43;47576.75;4995282;28;20207;-84
2022/10/17 05:25:36;;;;;;;32.63;16.57;;;;;;;-141.97;82.30;47603.66;5012715;28;20413;-84
2022/10/17 05:28:07;;;;;;;33.90;17.13;;;;;;;-141.97;82.71;47595.97;5009677;28;20465;-84
2022/10/17 05:30:37;;;;;;;49.80;23.27;;;;;;;-141.97;82.03;47634.41;4993917;28;20426;-86
2022/10/17 05:33:06;;;;;;;39.27;19.00;;;;;;;-141.97;81.59;47609.41;5012716;28;20472;-85
2022/10/17 05:35:38;;;;;;;41.67;21.33;;;;;;;-141.97;80.53;47703.59;5033317;28;20402;-85
2022/10/17 05:38:06;;;;;;;43.30;22.87;;;;;;;-141.97;79.67;47622.88;5021301;28;20410;-85
2022/10/17 05:40:38;;;;;;;43.93;22.07;;;;;;;-141.97;79.12;47763.19;4995847;28;20422;-84
2022/10/17 05:43:07;;;;;;;36.43;18.83;;;;;;;-141.97;78.39;47663.22;4992828;28;20411;-84
2022/10/17 05:45:37;;;;;;;41.67;19.87;;;;;;;-141.97;77.53;47642.09;5002424;28;20468;-84
2022/10/17 05:48:08;;;;;;;38.20;20.70;;;;;;;-141.97;77.73;47676.69;5013620;28;20772;-85
2022/10/17 05:50:37;;;;;;;37.93;18.50;;;;;;;-141.97;76.92;47632.47;5012378;28;20401;-85
2022/10/17 05:53:08;;;;;;;41.57;23.10;;;;;;;-141.97;76.89;47613.25;5013504;28;20433;-85
2022/10/17 05:55:38;;;;;;;48.80;25.00;;;;;;;-141.97;75.87;47680.53;5013833;28;20551;-87
2022/10/17 05:58:08;;;;;;;47.23;23.07;;;;;;;-141.97;75.93;47655.53;5013110;28;20508;-84
2022/10/17 06:00:38;;;;;;;49.67;27.83;;;;;;;-141.97;75.73;47638.25;5016699;28;20452;-85
2022/10/17 06:03:11;;;;;;;57.47;34.30;;;;;;;-141.97;75.57;47549.84;5013952;28;20447;-85
2022/10/17 06:05:38;;;;;;;50.90;27.50;;;;;;;-141.97;76.27;47611.34;5012989;28;20514;-86
2022/10/17 06:08:09;;;;;;;44.60;26.20;;;;;;;-141.97;75.76;47642.09;5015372;28;20480;-86
2022/10/17 06:10:40;;;;;;;36.23;21.33;;;;;;;-141.97;75.25;47595.97;5015765;28;20491;-85
2022/10/17 06:13:10;;;;;;;82.50;44.70;;;;;;;-141.97;74.74;47622.88;5013316;28;20429;-85
2022/10/17 06:15:39;;;;;;;53.57;30.30;;;;;;;-141.97;75.26;47632.47;5014947;28;20414;-86
2022/10/17 06:18:29;;;;;;;30.27;16.50;;;;;;;-141.97;75.60;47603.66;5014272;28;20440;-83
2022/10/17 06:21:01;;;;;;;32.87;16.87;;;;;;;-141.97;76.48;47674.78;4993472;28;20446;-86
2022/10/17 06:23:30;;;;;;;23.20;13.53;;;;;;;-141.97;77.52;47755.50;5011857;28;20997;-84
2022/10/17 06:26:03;;;;;;;27.13;15.40;;;;;;;-141.97;76.69;47624.78;5011939;28;20517;-84
2022/10/17 06:28:32;;;;;;;51.13;26.53;;;;;;;-141.97;75.14;47592.13;5010408;28;20984;-85
2022/10/17 06:30:58;;;;;;;36.67;19.90;;;;;;;-141.97;74.05;47607.50;5011473;28;20324;-85
2022/10/17 06:33:23;;;;;;;39.57;19.67;;;;;;;-141.97;73.30;47572.91;4992283;28;20426;-84
2022/10/17 06:35:53;;;;;;;29.20;15.00;;;;;;;-141.97;72.11;47642.09;4991536;28;20168;-84
2022/10/17 06:38:19;;;;;;;31.10;17.50;;;;;;;-141.97;71.88;47622.88;4997719;28;20178;-84
2022/10/17 06:40:44;;;;;;;35.87;18.80;;;;;;;-141.97;71.13;47622.88;4994152;28;20168;-85
2022/10/17 06:43:12;;;;;;;40.07;21.10;;;;;;;-141.97;69.57;47738.19;4995696;28;20293;-85
2022/10/17 06:45:41;;;;;;;37.83;19.93;;;;;;;-141.97;68.92;47609.41;5008176;28;20303;-84
2022/10/17 06:48:12;;;;;;;28.87;15.60;;;;;;;-141.97;67.49;47578.66;5014302;28;20202;-84
2022/10/17 06:50:43;;;;;;;23.43;13.40;;;;;;;-141.97;66.91;47634.41;5015382;28;20167;-84
2022/10/17 06:53:11;;;;;;;33.83;20.67;;;;;;;-141.97;66.45;47622.88;5015418;28;20163;-84
2022/10/17 06:55:41;;;;;;;30.13;15.27;;;;;;;-141.97;67.07;47630.56;5015723;28;20171;-84
2022/10/17 06:58:12;;;;;;;24.77;14.93;;;;;;;-141.97;66.76;47632.47;5015448;28;20256;-84
2022/10/17 07:00:44;;;;;;;26.70;14.93;;;;;;;-141.97;65.64;47565.22;5016179;28;20173;-84
2022/10/17 07:03:11;;;;;;;53.03;24.30;;;;;;;-141.97;65.09;47776.63;5015117;28;20170;-85
2022/10/17 07:05:49;;;;;;;22.77;13.70;;;;;;;-141.97;64.26;47634.41;5015781;28;20167;-84
2022/10/17 07:08:15;;;;;;;35.10;16.20;;;;;;;-141.97;64.37;47615.19;4997526;28;20293;-85
2022/10/17 07:10:42;;;;;;;28.87;15.43;;;;;;;-141.97;65.06;47588.28;5015793;28;20261;-85
2022/10/17 07:13:14;;;;;;;25.27;14.73;;;;;;;-141.97;64.25;47611.34;5016101;28;20222;-84
2022/10/17 07:15:43;;;;;;;28.00;16.40;;;;;;;-141.97;62.43;47603.66;5015786;28;20171;-84
2022/10/17 07:18:14;;;;;;;26.83;15.40;;;;;;;-141.97;62.58;47622.88;5016122;28;20189;-84
2022/10/17 07:20:51;;;;;;;21.10;12.97;;;;;;;-141.97;61.71;47642.09;5016467;28;20171;-85
2022/10/17 07:23:16;;;;;;;26.20;15.07;;;;;;;-141.97;61.57;47603.66;5015859;28;20516;-84
2022/10/17 07:25:45;;;;;;;27.90;14.40;;;;;;;-141.97;61.27;47613.25;5018058;28;20181;-86
2022/10/17 07:28:14;;;;;;;22.23;13.67;;;;;;;-141.97;61.08;47715.13;5017834;28;20336;-86
2022/10/17 07:30:46;;;;;;;22.43;11.93;;;;;;;-141.97;60.75;47634.41;5015708;28;20162;-85
2022/10/17 07:33:14;;;;;;;23.20;13.93;;;;;;;-141.97;60.10;47603.66;5015144;28;20190;-84
2022/10/17 07:35:51;;;;;;;26.03;16.90;;;;;;;-141.97;59.18;47663.22;5018271;28;20182;-83
2022/10/17 07:38:16;;;;;;;22.33;14.00;;;;;;;-141.97;58.56;47584.44;4999253;28;20182;-83
2022/10/17 07:40:45;;;;;;;19.37;11.40;;;;;;;-141.97;59.38;47715.13;5015643;28;20185;-85
2022/10/17 07:43:15;;;;;;;19.60;12.10;;;;;;;-141.97;58.85;47626.72;5017113;28;20197;-84
2022/10/17 07:45:46;;;;;;;20.80;12.67;;;;;;;-141.97;57.93;47640.16;5017786;28;20171;-83
2022/10/17 07:48:16;;;;;;;20.03;12.90;;;;;;;-141.97;57.31;47588.28;5015516;28;20276;-84
2022/10/17 07:50:46;;;;;;;26.37;17.13;;;;;;;-141.97;56.77;47569.06;5014451;28;20186;-84
2022/10/17 07:53:17;;;;;;;25.03;14.60;;;;;;;-141.97;56.97;47507.53;5013908;28;20177;-84
2022/10/17 07:55:48;;;;;;;19.70;11.57;;;;;;;-141.97;56.09;47705.53;5014421;28;20163;-84
2022/10/17 07:58:16;;;;;;;17.60;10.80;;;;;;;-141.97;54.90;47624.78;5014018;28;20171;-85
2022/10/17 08:00:47;;;;;;;17.20;11.43;;;;;;;-141.97;54.05;47592.13;5014498;28;20639;-86
2022/10/17 08:03:16;;;;;;;18.77;11.27;;;;;;;-141.97;54.13;47619.03;5014673;28;20167;-85
2022/10/17 08:05:47;;;;;;;20.20;11.97;;;;;;;-141.97;55.04;47553.69;5014446;28;20166;-85
2022/10/17 08:08:16;;;;;;;20.83;11.57;;;;;;;-141.97;53.65;47588.28;5014459;28;20201;-85
2022/10/17 08:10:47;;;;;;;19.63;12.80;;;;;;;-141.97;52.75;47601.72;5014097;28;20226;-85
2022/10/17 08:13:17;;;;;;;19.73;11.87;;;;;;;-141.97;52.57;47549.84;5014372;28;20171;-86
2022/10/17 08:15:48;;;;;;;14.73;10.33;;;;;;;-141.97;52.00;47567.13;4997166;28;20552;-83
2022/10/17 08:18:17;;;;;;;18.03;11.00;;;;;;;-141.97;51.72;47626.72;5013933;28;20166;-84
2022/10/17 08:20:47;;;;;;;17.13;10.67;;;;;;;-141.97;51.47;47584.44;5013667;28;20175;-83
2022/10/17 08:23:18;;;;;;;23.20;13.60;;;;;;;-141.97;50.84;47588.28;5012895;28;20684;-85
2022/10/17 08:25:49;;;;;;;18.90;10.87;;;;;;;-141.97;50.46;47603.66;5013969;28;20196;-84
2022/10/17 08:28:20;;;;;;;18.63;12.50;;;;;;;-141.97;50.26;47726.66;5013976;28;20233;-85
2022/10/17 08:30:49;;;;;;;20.60;13.77;;;;;;;-141.97;49.91;47578.66;5012379;28;20201;-86
2022/10/17 08:33:23;;;;;;;19.73;11.63;;;;;;;-141.97;49.16;47549.84;5012625;28;20171;-84
2022/10/17 08:35:51;;;;;;;18.43;11.63;;;;;;;-141.97;49.04;47480.63;5006432;28;20166;-85
2022/10/17 08:38:19;;;;;;;40.70;22.30;;;;;;;-141.97;50.77;47603.66;5016262;28;20400;-85
2022/10/17 08:40:49;;;;;;;19.70;11.73;;;;;;;-141.97;50.08;47615.19;5027482;28;20179;-82
2022/10/17 08:43:41;;;;;;;16.43;10.43;;;;;;;-141.97;48.01;47684.38;5014816;28;20324;-84
2022/10/17 08:46:08;;;;;;;16.30;10.40;;;;;;;-141.97;47.21;47649.78;5012065;28;21018;-84
2022/10/17 08:48:40;;;;;;;16.27;10.90;;;;;;;-141.97;46.46;47519.06;5013069;28;20283;-84
2022/10/17 08:51:29;;;;;;;17.37;11.10;;;;;;;-141.97;46.10;47467.19;5012945;28;20174;-84
2022/10/17 08:54:10;;;;;;;206.50;42.30;;;;;;;-141.97;45.59;47507.53;5012667;28;20209;-84
2022/10/17 08:56:43;;;;;;;17.50;11.10;;;;;;;-141.97;45.75;47555.59;5012818;28;20550;-85
2022/10/17 08:59:27;;;;;;;18.27;11.07;;;;;;;-141.97;45.12;47530.59;5012778;28;20182;-85
2022/10/17 09:02:23;;;;;;;31.60;13.80;;;;;;;-141.97;44.76;47567.13;5011518;28;20167;-85
2022/10/17 09:05:14;;;;;;;15.07;10.33;;;;;;;-141.97;43.54;47538.28;5013574;28;20197;-84
2022/10/17 09:07:52;;;;;;;16.30;9.83;;;;;;;-141.97;42.51;47565.22;4994895;28;20203;-84
2022/10/17 09:10:24;;;;;;;21.10;9.80;;;;;;;-141.97;42.26;47574.81;5013253;28;20173;-84
2022/10/17 09:13:34;;;;;;;13.50;9.40;;;;;;;-141.97;41.56;47542.16;5013398;28;20655;-87
2022/10/17 09:16:08;;;;;;;16.17;9.30;;;;;;;-141.97;41.12;47572.91;4913917;29;20169;-85
2022/10/17 09:18:40;;;;;;;13.30;8.97;;;;;;;-141.97;40.89;47528.69;4914138;29;20214;-83
2022/10/17 09:21:31;;;;;;;14.83;9.63;;;;;;;-141.97;40.32;47526.75;4914333;29;20292;-84
2022/10/17 09:24:02;;;;;;;18.37;10.87;;;;;;;-141.97;40.46;47557.53;4915082;29;20206;-85
2022/10/17 09:26:28;;;;;;;17.00;10.37;;;;;;;-141.97;39.37;47509.47;4914459;29;20715;-85
2022/10/17 09:28:58;;;;;;;19.03;10.77;;;;;;;-141.97;39.56;47634.41;4913791;29;20269;-85
2022/10/17 09:31:31;;;;;;;20.33;10.17;;;;;;;-141.97;39.14;47467.19;4914323;29;20174;-85
2022/10/17 09:34:00;;;;;;;16.37;9.50;;;;;;;-141.97;38.93;47672.84;4916621;29;20220;-84
2022/10/17 09:36:33;;;;;;;14.00;9.03;;;;;;;-141.97;38.60;47547.91;4915791;29;20261;-85
2022/10/17 09:39:02;;;;;;;13.73;8.97;;;;;;;-141.97;38.26;47488.31;4913786;29;20735;-83
2022/10/17 09:41:36;;;;;;;14.80;8.43;;;;;;;-141.97;37.40;47509.47;4914005;29;20221;-85
2022/10/17 09:44:19;;;;;;;15.70;8.80;;;;;;;-141.97;37.97;47519.06;4913555;29;20190;-84
2022/10/17 09:47:25;;;;;;;14.07;8.10;;;;;;;-141.97;37.14;47551.75;4953416;28;20195;-84
2022/10/17 09:49:56;;;;;;;16.50;8.63;;;;;;;-141.97;36.59;47511.38;4953088;29;20719;-84
2022/10/17 09:52:46;;;;;;;9.97;7.37;;;;;;;-141.97;36.44;47546.00;4936202;29;20247;-84
2022/10/17 09:55:37;;;;;;;10.73;7.20;;;;;;;-141.97;36.38;47530.59;4951625;29;20188;-84
2022/10/17 09:58:05;;;;;;;12.83;7.57;;;;;;;-141.97;35.45;47546.00;4951056;29;20192;-85
2022/10/17 10:00:40;;;;;;;38.20;12.10;;;;;;;-141.97;36.35;47553.69;4951259;29;20192;-84
2022/10/17 10:03:17;;;;;;;14.40;7.53;;;;;;;-141.97;35.17;47530.59;4952774;29;20211;-84
2022/10/17 10:06:00;;;;;;;8.57;6.83;;;;;;;-141.97;34.77;47536.38;4955695;29;20685;-84
2022/10/17 10:08:36;;;;;;;14.60;7.30;;;;;;;-141.97;34.19;47572.91;4956356;29;20307;-85
2022/10/17 10:11:06;;;;;;;8.60;6.30;;;;;;;-141.97;34.61;47565.22;4951487;29;20230;-84
2022/10/17 10:13:33;;;;;;;10.23;6.30;;;;;;;-141.97;34.16;47503.69;4951330;29;20208;-85
2022/10/17 10:16:19;;;;;;;8.93;6.63;;;;;;;-141.97;33.92;47530.59;4954228;28;20253;-86
2022/10/17 10:18:45;;;;;;;9.33;6.20;;;;;;;-141.97;32.40;47494.09;4955055;29;20227;-85
2022/10/17 10:21:17;;;;;;;10.53;6.60;;;;;;;-141.97;32.57;47542.16;4955407;29;20572;-85
2022/10/17 10:23:44;;;;;;;10.10;6.20;;;;;;;-141.97;32.08;47519.06;4954891;29;20181;-85
2022/10/17 10:26:29;;;;;;;7.63;5.60;;;;;;;-141.97;31.46;47503.69;4968196;28;20214;-84
2022/10/17 10:29:04;;;;;;;6.10;4.77;;;;;;;-141.97;29.81;47607.50;4996336;28;20199;-84
2022/10/17 10:31:34;;;;;;;8.10;4.73;;;;;;;-141.97;29.94;47544.06;4996328;28;20186;-86
2022/10/17 10:34:23;;;;;;;6.20;4.70;;;;;;;-141.97;29.61;47480.63;4994876;28;20599;-85
2022/10/17 10:37:20;;;;;;;7.67;4.93;;;;;;;-141.97;30.17;47501.78;4994607;28;20168;-84
2022/10/17 10:39:50;;;;;;;7.47;4.80;;;;;;;-141.97;30.05;47455.66;4954605;29;20754;-84
2022/10/17 10:42:36;;;;;;;6.93;5.03;;;;;;;-141.97;29.98;47499.84;4943018;28;20205;-86
2022/10/17 10:45:15;;;;;;;9.20;5.57;;;;;;;-141.97;29.95;47576.75;4971808;28;20200;-88
2022/10/17 10:47:54;;;;;;;7.67;5.30;;;;;;;-141.97;29.91;47488.31;4973029;28;20192;-85
2022/10/17 10:50:33;;;;;;;7.77;5.07;;;;;;;-141.97;29.85;47544.06;4953452;29;20196;-85
2022/10/17 10:53:32;;;;;;;8.63;5.30;;;;;;;-141.97;30.31;47521.00;4956296;29;20259;-85
2022/10/17 10:56:07;;;;;;;7.27;5.30;;;;;;;-141.97;30.23;47484.47;4955635;28;20196;-84
2022/10/17 10:58:53;;;;;;;9.67;5.40;;;;;;;-141.97;30.29;47530.59;4940974;29;20196;-87
2022/10/17 11:01:41;;;;;;;6.83;5.27;;;;;;;-141.97;30.17;47524.84;4955196;28;20223;-85
2022/10/17 11:04:41;;;;;;;8.87;5.00;;;;;;;-141.97;30.04;47522.91;4974419;28;20310;-86
2022/10/17 11:07:14;;;;;;;8.80;5.10;;;;;;;-141.97;29.98;47524.84;4954327;29;20188;-87
2022/10/17 11:09:45;;;;;;;6.23;4.60;;;;;;;-141.97;30.30;47546.00;4936962;29;20307;-86
2022/10/17 11:12:29;;;;;;;8.07;4.80;;;;;;;-141.97;29.86;47538.28;4953312;29;20771;-82
2022/10/17 11:15:17;;;;;;;7.77;5.00;;;;;;;-141.97;30.11;47490.25;4952595;28;20662;-82
2022/10/17 11:17:56;;;;;;;6.33;5.00;;;;;;;-141.97;30.11;47497.94;4990246;28;20392;-82
2022/10/17 11:20:28;;;;;;;5.60;4.83;;;;;;;-141.97;30.35;47507.53;4993664;28;20744;-83
2022/10/17 11:23:00;;;;;;;7.57;5.23;;;;;;;-141.97;30.36;47519.06;4993744;28;20262;-83
2022/10/17 11:25:40;;;;;;;7.47;5.07;;;;;;;-141.97;30.84;47488.31;4993544;28;20183;-82
2022/10/17 11:28:14;;;;;;;7.77;5.20;;;;;;;-141.97;31.18;47472.94;4993559;28;20222;-85